createdAt,value
2019-02-27T00:01:59.484Z,101830.23
2019-02-27T00:04:30.280Z,101825.78
2019-02-27T00:07:01.130Z,101815.61
2019-02-27T00:09:32.891Z,101814.97
2019-02-27T00:12:09.265Z,101804.14
2019-02-27T00:14:39.721Z,101812.11
2019-02-27T00:17:10.564Z,101818.34
2019-02-27T00:19:43.262Z,101827.13
2019-02-27T00:22:17.274Z,101823.39
2019-02-27T00:24:47.728Z,101824.84
2019-02-27T00:27:18.164Z,101817.02
2019-02-27T00:29:48.658Z,101816.84
2019-02-27T00:32:22.416Z,101817.20
2019-02-27T00:34:53.044Z,101814.31
2019-02-27T00:37:23.759Z,101810.48
2019-02-27T00:39:54.198Z,101816.66
2019-02-27T00:42:33.324Z,101818.10
2019-02-27T00:44:57.584Z,101815.37
2019-02-27T00:47:28.029Z,101818.76
2019-02-27T00:49:58.436Z,101814.05
2019-02-27T00:52:28.913Z,101813.81
2019-02-27T00:54:59.285Z,101819.85
2019-02-27T00:57:30.024Z,101816.77
2019-02-27T01:00:00.783Z,101812.28
2019-02-27T01:02:31.880Z,101802.91
2019-02-27T01:05:02.547Z,101801.12
2019-02-27T01:07:34.388Z,101798.20
2019-02-27T01:10:06.246Z,101804.56
2019-02-27T01:12:38.342Z,101801.72
2019-02-27T01:15:10.707Z,101795.17
2019-02-27T01:17:41.372Z,101801.71
2019-02-27T01:20:12.471Z,101794.11
2019-02-27T01:22:42.925Z,101784.95
2019-02-27T01:25:13.354Z,101779.89
2019-02-27T01:27:44.157Z,101780.08
2019-02-27T01:30:15.348Z,101773.44
2019-02-27T01:32:46.088Z,101774.45
2019-02-27T01:35:18.735Z,101772.50
2019-02-27T01:37:48.729Z,101765.22
2019-02-27T01:40:19.086Z,101759.02
2019-02-27T01:42:49.746Z,101759.07
2019-02-27T01:45:21.094Z,101759.58
2019-02-27T01:47:52.261Z,101748.73
2019-02-27T01:50:41.368Z,101747.65
2019-02-27T01:53:11.970Z,101737.11
2019-02-27T01:55:42.390Z,101742.83
2019-02-27T01:58:13.166Z,101739.58
2019-02-27T02:00:48.393Z,101738.76
2019-02-27T02:03:18.871Z,101734.23
2019-02-27T02:05:49.189Z,101723.95
2019-02-27T02:08:19.593Z,101727.40
2019-02-27T02:10:51.650Z,101722.55
2019-02-27T02:13:48.757Z,101715.58
2019-02-27T02:17:07.488Z,101717.98
2019-02-27T02:20:38.074Z,101710.27
2019-02-27T02:23:32.731Z,101712.88
2019-02-27T02:26:43.157Z,101707.45
2019-02-27T02:30:17.443Z,101706.88
2019-02-27T02:33:30.281Z,101703.27
2019-02-27T02:37:02.422Z,101704.08
2019-02-27T02:40:34.104Z,101707.55
2019-02-27T02:44:01.147Z,101706.59
2019-02-27T02:47:20.064Z,101706.02
2019-02-27T02:50:36.240Z,101711.33
2019-02-27T02:53:49.033Z,101715.88
2019-02-27T02:56:51.585Z,101710.36
2019-02-27T03:00:00.127Z,101708.98
2019-02-27T03:03:27.000Z,101710.69
2019-02-27T03:06:34.994Z,101717.13
2019-02-27T03:10:09.803Z,101721.45
2019-02-27T03:13:32.987Z,101716.45
2019-02-27T03:16:16.278Z,101707.44
2019-02-27T03:19:16.586Z,101705.32
2019-02-27T03:22:41.599Z,101708.84
2019-02-27T03:25:47.431Z,101708.28
2019-02-27T03:29:25.153Z,101705.63
2019-02-27T03:32:54.097Z,101701.69
2019-02-27T03:36:09.690Z,101711.81
2019-02-27T03:39:35.743Z,101712.48
2019-02-27T03:43:29.690Z,101712.77
2019-02-27T03:46:25.470Z,101703.10
2019-02-27T03:49:54.674Z,101700.63
2019-02-27T03:53:19.059Z,101703.74
2019-02-27T03:57:00.716Z,101699.65
2019-02-27T04:00:23.294Z,101695.57
2019-02-27T04:04:10.563Z,101688.95
2019-02-27T04:07:20.013Z,101687.62
2019-02-27T04:09:55.066Z,101684.03
2019-02-27T04:12:22.489Z,101684.37
2019-02-27T04:14:52.825Z,101685.47
2019-02-27T04:17:28.483Z,101682.79
2019-02-27T04:19:59.215Z,101680.97
2019-02-27T04:22:29.609Z,101684.39
2019-02-27T04:25:00.302Z,101686.36
2019-02-27T04:27:30.831Z,101688.92
2019-02-27T04:30:01.193Z,101684.26
2019-02-27T04:32:31.626Z,101687.09
2019-02-27T04:35:05.911Z,101689.45
2019-02-27T04:37:34.629Z,101687.84
2019-02-27T04:40:05.646Z,101683.38
2019-02-27T04:42:36.377Z,101684.25
2019-02-27T04:45:09.849Z,101681.37
2019-02-27T04:47:50.435Z,101685.70
2019-02-27T04:50:28.856Z,101682.72
2019-02-27T04:53:00.074Z,101684.08
2019-02-27T04:55:40.301Z,101674.48
2019-02-27T04:58:29.015Z,101680.48
2019-02-27T05:01:05.866Z,101678.50
2019-02-27T05:03:37.510Z,101681.81
2019-02-27T05:06:22.752Z,101677.59
2019-02-27T05:08:53.090Z,101679.98
2019-02-27T05:11:32.975Z,101677.44
2019-02-27T05:14:11.480Z,101677.16
2019-02-27T05:16:47.049Z,101673.75
2019-02-27T05:19:16.610Z,101678.09
2019-02-27T05:21:52.599Z,101676.72
2019-02-27T05:24:24.897Z,101677.30
2019-02-27T05:27:02.066Z,101674.84
2019-02-27T05:29:39.463Z,101665.15
2019-02-27T05:32:09.933Z,101662.90
2019-02-27T05:34:40.422Z,101659.98
2019-02-27T05:37:10.819Z,101657.88
2019-02-27T05:39:41.172Z,101654.84
2019-02-27T05:42:13.679Z,101652.59
2019-02-27T05:44:44.369Z,101645.51
2019-02-27T05:47:14.713Z,101640.98
2019-02-27T05:49:45.636Z,101646.41
2019-02-27T05:52:15.978Z,101645.05
2019-02-27T05:54:47.998Z,101642.51
2019-02-27T05:57:21.079Z,101642.89
2019-02-27T05:59:52.415Z,101640.41
2019-02-27T06:02:22.762Z,101641.05
2019-02-27T06:04:53.249Z,101636.02
2019-02-27T06:07:23.997Z,101634.09
2019-02-27T06:09:54.482Z,101634.77
2019-02-27T06:12:24.855Z,101631.23
2019-02-27T06:14:55.592Z,101629.14
2019-02-27T06:17:26.098Z,101626.93
2019-02-27T06:19:56.442Z,101627.20
2019-02-27T06:22:30.221Z,101628.25
2019-02-27T06:24:59.186Z,101634.28
2019-02-27T06:27:31.653Z,101632.02
2019-02-27T06:30:06.108Z,101629.22
2019-02-27T06:32:36.994Z,101630.54
2019-02-27T06:35:08.168Z,101625.36
2019-02-27T06:37:50.774Z,101622.41
2019-02-27T06:40:20.473Z,101623.53
2019-02-27T06:42:56.992Z,101628.98
2019-02-27T06:45:34.552Z,101625.94
2019-02-27T06:48:12.623Z,101625.35
2019-02-27T06:50:43.321Z,101632.41
2019-02-27T06:53:16.430Z,101634.19
2019-02-27T06:55:47.184Z,101627.48
2019-02-27T06:58:17.543Z,101627.27
2019-02-27T07:00:51.285Z,101628.11
2019-02-27T07:03:21.639Z,101628.02
2019-02-27T07:05:52.139Z,101627.73
2019-02-27T07:08:22.424Z,101627.64
2019-02-27T07:10:58.948Z,101622.05
2019-02-27T07:13:29.791Z,101621.95
2019-02-27T07:15:58.850Z,101635.40
2019-02-27T07:18:31.611Z,101623.78
2019-02-27T07:21:02.338Z,101627.89
2019-02-27T07:23:32.729Z,101628.89
2019-02-27T07:26:03.456Z,101627.58
2019-02-27T07:28:33.897Z,101621.66
2019-02-27T07:31:04.270Z,101616.81
2019-02-27T07:33:41.474Z,101615.85
2019-02-27T07:36:12.285Z,101611.14
2019-02-27T07:38:42.765Z,101614.75
2019-02-27T07:41:17.566Z,101618.27
2019-02-27T07:43:45.383Z,101615.05
2019-02-27T07:46:15.758Z,101609.09
2019-02-27T07:48:46.248Z,101606.38
2019-02-27T07:51:16.661Z,101604.00
2019-02-27T07:53:47.510Z,101603.51
2019-02-27T07:56:18.247Z,101600.06
2019-02-27T07:58:48.782Z,101605.06
2019-02-27T08:01:20.976Z,101603.89
2019-02-27T08:03:51.937Z,101602.36
2019-02-27T08:06:23.661Z,101608.94
2019-02-27T08:09:01.629Z,101602.97
2019-02-27T08:11:32.622Z,101597.32
2019-02-27T08:14:03.931Z,101597.20
2019-02-27T08:16:36.959Z,101588.98
2019-02-27T08:19:08.830Z,101591.34
2019-02-27T08:21:39.234Z,101594.12
2019-02-27T08:24:11.105Z,101589.91
2019-02-27T08:26:41.597Z,101583.46
2019-02-27T08:29:12.474Z,101577.84
2019-02-27T08:31:43.027Z,101577.08
2019-02-27T08:34:14.281Z,101577.68
2019-02-27T08:36:55.616Z,101572.70
2019-02-27T08:39:27.582Z,101570.45
2019-02-27T08:42:03.216Z,101564.08
2019-02-27T08:44:33.141Z,101569.45
2019-02-27T08:47:04.459Z,101564.94
2019-02-27T08:49:35.530Z,101566.09
2019-02-27T08:52:08.364Z,101555.55
2019-02-27T08:54:38.665Z,101557.73
2019-02-27T08:57:09.306Z,101553.47
2019-02-27T08:59:40.773Z,101550.39
2019-02-27T09:02:13.528Z,101553.97
2019-02-27T09:04:45.507Z,101548.09
2019-02-27T09:07:16.269Z,101541.83
2019-02-27T09:09:51.249Z,101537.99
2019-02-27T09:12:20.215Z,101534.49
2019-02-27T09:14:50.618Z,101530.56
2019-02-27T09:17:21.471Z,101529.95
2019-02-27T09:19:52.335Z,101526.14
2019-02-27T09:22:22.733Z,101527.12
2019-02-27T09:24:53.578Z,101518.00
2019-02-27T09:27:23.953Z,101525.94
2019-02-27T09:29:55.379Z,101517.75
2019-02-27T09:32:26.322Z,101513.17
2019-02-27T09:34:59.598Z,101515.08
2019-02-27T09:37:31.165Z,101508.55
2019-02-27T09:40:04.747Z,101504.80
2019-02-27T09:42:33.801Z,101502.52
2019-02-27T09:45:04.458Z,101499.39
2019-02-27T09:47:36.114Z,101495.89
2019-02-27T09:50:19.791Z,101495.31
2019-02-27T09:53:19.109Z,101494.27
2019-02-27T09:55:44.111Z,101485.83
2019-02-27T09:58:15.607Z,101489.00
2019-02-27T10:01:03.699Z,101478.98
2019-02-27T10:03:34.639Z,101483.72
2019-02-27T10:06:05.083Z,101475.31
2019-02-27T10:08:35.921Z,101474.17
2019-02-27T10:11:06.344Z,101465.09
2019-02-27T10:13:37.920Z,101461.30
2019-02-27T10:16:08.958Z,101461.13
2019-02-27T10:18:39.853Z,101458.81
2019-02-27T10:21:12.141Z,101457.75
2019-02-27T10:23:43.099Z,101448.45
2019-02-27T10:26:16.554Z,101449.70
2019-02-27T10:28:46.444Z,101445.03
2019-02-27T10:31:16.998Z,101449.86
2019-02-27T10:33:48.287Z,101439.14
2019-02-27T10:36:27.303Z,101433.02
2019-02-27T10:38:59.388Z,101426.74
2019-02-27T10:41:30.340Z,101414.88
2019-02-27T10:44:01.087Z,101416.69
2019-02-27T10:46:31.499Z,101410.32
2019-02-27T10:49:02.645Z,101407.52
2019-02-27T10:51:33.074Z,101401.14
2019-02-27T10:54:05.404Z,101397.75
2019-02-27T10:56:35.681Z,101404.91
2019-02-27T10:59:08.232Z,101397.09
2019-02-27T11:01:38.853Z,101394.55
2019-02-27T11:04:09.383Z,101391.88
2019-02-27T11:06:39.682Z,101386.91
2019-02-27T11:09:26.087Z,101384.55
2019-02-27T11:11:56.539Z,101381.61
2019-02-27T11:14:31.708Z,101379.55
2019-02-27T11:17:02.489Z,101376.46
2019-02-27T11:19:31.626Z,101370.93
2019-02-27T11:22:02.106Z,101363.63
2019-02-27T11:24:32.542Z,101360.62
2019-02-27T11:27:03.483Z,101359.56
2019-02-27T11:29:37.824Z,101354.72
2019-02-27T11:32:11.265Z,101344.77
2019-02-27T11:34:41.675Z,101343.38
2019-02-27T11:37:13.844Z,101338.50
2019-02-27T11:39:48.797Z,101332.83
2019-02-27T11:42:19.557Z,101328.26
2019-02-27T11:44:51.741Z,101330.51
2019-02-27T11:47:22.493Z,101319.27
2019-02-27T11:49:54.264Z,101315.00
2019-02-27T11:52:28.630Z,101313.66
2019-02-27T11:54:58.184Z,101307.28
2019-02-27T11:57:30.593Z,101300.18
2019-02-27T12:00:01.945Z,101301.06
2019-02-27T12:02:37.782Z,101291.67
2019-02-27T12:05:07.407Z,101295.42
2019-02-27T12:07:37.876Z,101288.06
2019-02-27T12:10:16.556Z,101284.84
2019-02-27T12:12:48.567Z,101276.88
2019-02-27T12:15:20.465Z,101275.05
2019-02-27T12:17:52.633Z,101275.25
2019-02-27T12:20:23.933Z,101269.49
2019-02-27T12:22:54.739Z,101268.13
2019-02-27T12:25:29.126Z,101248.23
2019-02-27T12:28:00.320Z,101247.73
2019-02-27T12:30:31.043Z,101234.30
2019-02-27T12:33:01.549Z,101239.42
2019-02-27T12:35:32.216Z,101228.44
2019-02-27T12:38:09.048Z,101226.06
2019-02-27T12:40:40.298Z,101218.39
2019-02-27T12:43:17.271Z,101211.08
2019-02-27T12:45:44.951Z,101204.73
2019-02-27T12:48:16.519Z,101202.14
2019-02-27T12:50:47.020Z,101198.63
2019-02-27T12:53:20.627Z,101187.99
2019-02-27T12:55:51.677Z,101186.61
2019-02-27T12:58:27.153Z,101182.16
2019-02-27T13:00:57.692Z,101178.67
2019-02-27T13:03:28.228Z,101176.88
2019-02-27T13:06:00.993Z,101176.50
2019-02-27T13:08:31.288Z,101168.94
2019-02-27T13:11:05.311Z,101164.94
2019-02-27T13:13:37.290Z,101157.66
2019-02-27T13:16:07.939Z,101151.84
2019-02-27T13:18:39.095Z,101146.99
2019-02-27T13:21:20.130Z,101143.81
2019-02-27T13:23:47.740Z,101148.91
2019-02-27T13:26:18.209Z,101144.78
2019-02-27T13:28:49.649Z,101140.97
2019-02-27T13:31:20.447Z,101137.13
2019-02-27T13:33:52.611Z,101134.79
2019-02-27T13:36:23.132Z,101127.41
2019-02-27T13:38:54.186Z,101126.92
2019-02-27T13:41:25.313Z,101121.41
2019-02-27T13:43:58.253Z,101114.31
2019-02-27T13:46:28.288Z,101105.95
2019-02-27T13:48:58.925Z,101095.07
2019-02-27T13:51:29.749Z,101095.97
2019-02-27T13:54:06.883Z,101094.01
2019-02-27T13:56:39.088Z,101081.04
2019-02-27T13:59:10.905Z,101076.56
2019-02-27T14:01:42.339Z,101073.65
2019-02-27T14:04:12.968Z,101063.16
2019-02-27T14:06:47.407Z,101058.73
2019-02-27T14:09:19.026Z,101057.62
2019-02-27T14:11:49.600Z,101055.31
2019-02-27T14:14:21.962Z,101050.17
2019-02-27T14:16:52.875Z,101049.12
2019-02-27T14:19:23.899Z,101039.75
2019-02-27T14:21:56.170Z,101042.84
2019-02-27T14:24:26.915Z,101041.34
2019-02-27T14:26:57.362Z,101036.54
2019-02-27T14:29:29.835Z,101037.94
2019-02-27T14:32:01.357Z,101032.77
2019-02-27T14:34:34.343Z,101023.28
2019-02-27T14:37:04.939Z,101022.50
2019-02-27T14:39:35.330Z,101018.55
2019-02-27T14:42:06.817Z,101013.57
2019-02-27T14:44:38.326Z,101008.86
2019-02-27T14:47:10.938Z,101005.99
2019-02-27T14:49:43.314Z,101006.94
2019-02-27T14:52:14.763Z,101006.08
2019-02-27T14:54:45.217Z,100997.39
2019-02-27T14:57:16.098Z,100991.09
2019-02-27T14:59:48.254Z,100978.73
2019-02-27T15:02:22.039Z,100968.40
2019-02-27T15:04:50.846Z,100962.39
2019-02-27T15:07:22.187Z,100969.64
2019-02-27T15:09:56.959Z,100968.70
2019-02-27T15:12:30.991Z,100967.12
2019-02-27T15:15:02.046Z,100964.78
2019-02-27T15:17:32.801Z,100956.27
2019-02-27T15:20:05.624Z,100949.50
2019-02-27T15:22:36.553Z,100945.87
2019-02-27T15:25:08.883Z,100939.09
2019-02-27T15:27:39.411Z,100934.30
2019-02-27T15:30:13.276Z,100933.02
2019-02-27T15:32:46.770Z,100928.27
2019-02-27T15:35:21.927Z,100919.08
2019-02-27T15:37:51.919Z,100923.64
2019-02-27T15:40:28.535Z,100930.44
2019-02-27T15:42:57.161Z,100922.94
2019-02-27T15:45:28.121Z,100922.61
2019-02-27T15:47:59.096Z,100918.43
2019-02-27T15:50:33.007Z,100910.66
2019-02-27T15:53:03.813Z,100906.27
2019-02-27T15:55:35.373Z,100912.41
2019-02-27T15:58:06.556Z,100900.14
2019-02-27T16:00:37.252Z,100900.83
2019-02-27T16:03:10.984Z,100900.61
2019-02-27T16:05:40.228Z,100897.25
2019-02-27T16:08:12.842Z,100896.50
2019-02-27T16:10:45.319Z,100895.88
2019-02-27T16:13:15.311Z,100890.27
2019-02-27T16:15:48.527Z,100894.06
2019-02-27T16:18:21.762Z,100887.06
2019-02-27T16:20:52.123Z,100889.31
2019-02-27T16:23:22.796Z,100891.33
2019-02-27T16:25:56.523Z,100886.39
2019-02-27T16:28:28.113Z,100883.02
2019-02-27T16:30:58.552Z,100878.41
2019-02-27T16:33:31.573Z,100876.05
2019-02-27T16:36:02.014Z,100870.45
2019-02-27T16:38:32.923Z,100870.95
2019-02-27T16:41:03.329Z,100864.95
2019-02-27T16:43:34.299Z,100862.00
2019-02-27T16:46:07.723Z,100867.17
2019-02-27T16:48:36.879Z,100859.35
2019-02-27T16:51:07.528Z,100861.52
2019-02-27T16:53:38.007Z,100857.92
2019-02-27T16:56:14.749Z,100858.30
2019-02-27T16:58:45.137Z,100850.83
2019-02-27T17:01:15.578Z,100840.18
2019-02-27T17:03:52.546Z,100843.63
2019-02-27T17:06:20.255Z,100842.81
2019-02-27T17:08:50.619Z,100847.37
2019-02-27T17:11:21.053Z,100841.77
2019-02-27T17:13:54.059Z,100836.63
2019-02-27T17:16:24.600Z,100834.69
2019-02-27T17:18:59.173Z,100830.99
2019-02-27T17:21:35.400Z,100828.45
2019-02-27T17:24:06.040Z,100823.02
2019-02-27T17:26:39.176Z,100818.91
2019-02-27T17:29:08.714Z,100816.41
2019-02-27T17:31:48.644Z,100816.98
2019-02-27T17:34:14.440Z,100819.09
2019-02-27T17:36:51.233Z,100809.95
2019-02-27T17:39:27.320Z,100800.48
2019-02-27T17:42:07.853Z,100803.77
2019-02-27T17:44:38.836Z,100799.47
2019-02-27T17:47:09.333Z,100802.01
2019-02-27T17:49:40.297Z,100799.66
2019-02-27T17:52:11.514Z,100794.18
2019-02-27T17:54:43.660Z,100797.53
2019-02-27T17:57:17.210Z,100789.59
2019-02-27T17:59:49.949Z,100788.81
2019-02-27T18:02:20.371Z,100779.02
2019-02-27T18:04:53.707Z,100775.20
2019-02-27T18:07:23.105Z,100771.42
2019-02-27T18:09:53.668Z,100763.50
2019-02-27T18:12:26.906Z,100761.45
2019-02-27T18:15:21.174Z,100758.00
2019-02-27T18:17:52.173Z,100755.87
2019-02-27T18:20:25.614Z,100749.67
2019-02-27T18:22:57.074Z,100741.05
2019-02-27T18:25:30.492Z,100736.66
2019-02-27T18:28:01.335Z,100736.63
2019-02-27T18:30:32.242Z,100730.92
2019-02-27T18:33:17.306Z,100726.45
2019-02-27T18:35:52.239Z,100720.03
2019-02-27T18:38:54.265Z,100712.64
2019-02-27T18:41:55.877Z,100712.48
2019-02-27T18:44:26.632Z,100716.62
2019-02-27T18:47:09.524Z,100710.14
2019-02-27T18:49:43.181Z,100713.80
2019-02-27T18:52:21.227Z,100711.55
2019-02-27T18:54:54.731Z,100714.41
2019-02-27T18:57:24.989Z,100714.98
2019-02-27T19:00:04.512Z,100708.19
2019-02-27T19:03:27.081Z,100704.75
2019-02-27T19:05:50.321Z,100695.79
2019-02-27T19:08:28.082Z,100695.48
2019-02-27T19:11:00.898Z,100684.92
2019-02-27T19:13:33.166Z,100690.80
2019-02-27T19:16:04.915Z,100691.41
2019-02-27T19:18:57.448Z,100685.97
2019-02-27T19:21:32.787Z,100683.45
2019-02-27T19:24:34.960Z,100674.56
2019-02-27T19:27:55.089Z,100668.95
2019-02-27T19:30:09.552Z,100666.37
2019-02-27T19:32:50.555Z,100659.62
2019-02-27T19:35:25.578Z,100660.84
2019-02-27T19:37:59.129Z,100656.73
2019-02-27T19:40:31.190Z,100658.69
2019-02-27T19:43:07.863Z,100650.77
2019-02-27T19:45:42.159Z,100647.42
2019-02-27T19:48:12.793Z,100646.38
2019-02-27T19:50:46.245Z,100644.00
2019-02-27T19:53:15.559Z,100636.14
2019-02-27T19:55:47.315Z,100633.20
2019-02-27T19:58:18.340Z,100632.92
2019-02-27T20:00:49.024Z,100627.05
2019-02-27T20:03:19.774Z,100619.13
2019-02-27T20:08:45.330Z,100613.39
2019-02-27T20:11:24.126Z,100612.28
2019-02-27T20:13:56.344Z,100608.71
2019-02-27T20:16:28.318Z,100608.61
2019-02-27T20:18:58.924Z,100607.27
2019-02-27T20:21:32.405Z,100604.70
2019-02-27T20:24:14.184Z,100597.21
2019-02-27T20:26:51.414Z,100603.39
2019-02-27T20:29:21.311Z,100592.92
2019-02-27T20:31:54.455Z,100588.52
2019-02-27T20:34:28.839Z,100588.72
2019-02-27T20:37:14.028Z,100580.59
2019-02-27T20:40:01.704Z,100575.57
2019-02-27T20:42:58.681Z,100571.52
2019-02-27T20:45:36.009Z,100564.50
2019-02-27T20:48:08.845Z,100562.06
2019-02-27T20:50:55.659Z,100562.63
2019-02-27T20:53:29.961Z,100562.84
2019-02-27T20:56:03.073Z,100560.73
2019-02-27T20:58:33.561Z,100557.98
2019-02-27T21:01:13.795Z,100558.61
2019-02-27T21:03:45.338Z,100556.70
2019-02-27T21:06:15.994Z,100558.23
2019-02-27T21:08:47.540Z,100556.55
2019-02-27T21:11:29.531Z,100549.31
2019-02-27T21:13:58.205Z,100543.73
2019-02-27T21:16:28.771Z,100546.53
2019-02-27T21:19:04.206Z,100536.78
2019-02-27T21:21:54.415Z,100523.44
2019-02-27T21:24:31.836Z,100523.75
2019-02-27T21:27:02.402Z,100513.23
2019-02-27T21:29:32.858Z,100514.11
2019-02-27T21:32:04.567Z,100505.31
2019-02-27T21:34:35.400Z,100500.34
2019-02-27T21:37:24.483Z,100501.34
2019-02-27T21:39:57.456Z,100493.02
2019-02-27T21:42:32.821Z,100486.68
2019-02-27T21:45:16.197Z,100480.66
2019-02-27T21:47:51.389Z,100478.19
2019-02-27T21:50:27.881Z,100481.02
2019-02-27T21:53:21.897Z,100469.22
2019-02-27T21:55:55.000Z,100462.21
2019-02-27T21:58:35.035Z,100460.27
2019-02-27T22:01:06.490Z,100453.94
2019-02-27T22:03:40.456Z,100453.55
2019-02-27T22:06:16.711Z,100448.56
2019-02-27T22:08:53.302Z,100446.18
2019-02-27T22:11:41.333Z,100444.23
2019-02-27T22:14:27.758Z,100438.47
2019-02-27T22:17:09.267Z,100439.08
2019-02-27T22:19:43.979Z,100436.23
2019-02-27T22:22:19.309Z,100430.58
2019-02-27T22:24:57.683Z,100424.19
2019-02-27T22:27:29.260Z,100421.92
2019-02-27T22:30:05.751Z,100418.34
2019-02-27T22:32:41.501Z,100422.10
2019-02-27T22:35:24.852Z,100418.98
2019-02-27T22:37:52.803Z,100415.12
2019-02-27T22:40:29.091Z,100408.25
2019-02-27T22:43:05.732Z,100404.45
2019-02-27T22:45:43.842Z,100401.14
2019-02-27T22:48:18.714Z,100395.75
2019-02-27T22:50:57.031Z,100392.36
2019-02-27T22:53:28.777Z,100393.97
2019-02-27T22:55:59.877Z,100386.63
2019-02-27T22:58:33.242Z,100386.57
2019-02-27T23:01:25.904Z,100375.00
2019-02-27T23:04:00.482Z,100376.42
2019-02-27T23:06:31.166Z,100374.69
2019-02-27T23:09:16.441Z,100369.55
2019-02-27T23:11:49.688Z,100364.23
2019-02-27T23:14:30.372Z,100365.91
2019-02-27T23:17:07.173Z,100362.53
2019-02-27T23:19:50.868Z,100369.06
2019-02-27T23:22:23.790Z,100367.23
2019-02-27T23:25:00.104Z,100362.75
2019-02-27T23:27:51.550Z,100357.52
2019-02-27T23:30:25.264Z,100363.08
2019-02-27T23:33:12.730Z,100366.64
2019-02-27T23:36:06.577Z,100364.69
2019-02-27T23:38:39.579Z,100357.03
2019-02-27T23:41:14.284Z,100352.50
2019-02-27T23:43:44.531Z,100349.25
2019-02-27T23:46:21.616Z,100349.53
2019-02-27T23:49:06.537Z,100342.95
2019-02-27T23:51:41.396Z,100334.64
2019-02-27T23:54:52.023Z,100330.38
2019-02-27T23:57:26.089Z,100327.33
